Saint Ignace, Michigan
Current Conditions -  °F | °C
As of 9:18 AM on Monday 20 Oct 2014 (Local Time) from KMCD Reporting Station
Overcast Overcast  
Wind Chill: 47°   Ceiling: 1000
Heat Index: 49°   Visibility: 10mi
Dew Point: 47°   Wind: 5mph
Humidity: 93%   Direction: 320°NW
Pressure: 29.75"   Gusts: NA
Location:  45.87°N, 84.73°W
Report Text: KMCD 201318Z AUTO 32004KT 10SM OVC010 10/09 A2975 RMK AO2 T00950085
Loading
Personal Weather Stations






























Interactive Weather Map
Tropical Storm Tracking
New forecast layout! Learn more

10-Day Weather Forecast

Advertisements
Track Severe Weather on mobile